Terminal Aerodrome Forecast
Issued by NWS

Home | Current Version | Previous Version | Text Only | Print | Product List | Glossary Off
Versions: 1 2 3 4 5 6 7 8 9 10 11 12 13 14 15 16 17 18 19

000
FTUS43 KGRB 261609 AAB
TAFAUW
TAF AMD
KAUW 261609Z 2616/2712 27019G32KT P6SM BKN040
     FM270000 27016KT P6SM SCT040 BKN080
     FM271000 27011KT P6SM BKN030=

USA.gov is the U.S. government's official web portal to all federal, state and local government web resources and services.